createdAt,value
2018-11-11T00:01:48.552Z,99.90
2018-11-11T00:03:53.604Z,99.90
2018-11-11T00:05:57.421Z,99.90
2018-11-11T00:08:01.153Z,99.90
2018-11-11T00:10:05.224Z,99.90
2018-11-11T00:12:09.203Z,99.90
2018-11-11T00:14:13.298Z,99.90
2018-11-11T00:16:17.404Z,99.90
2018-11-11T00:18:21.148Z,99.90
2018-11-11T00:20:25.002Z,99.90
2018-11-11T00:22:28.740Z,99.90
2018-11-11T00:24:32.516Z,99.90
2018-11-11T00:26:36.286Z,99.90
2018-11-11T00:28:40.141Z,99.90
2018-11-11T00:30:43.842Z,99.90
2018-11-11T00:32:47.640Z,99.90
2018-11-11T00:34:51.518Z,99.90
2018-11-11T00:36:55.300Z,99.90
2018-11-11T00:38:59.104Z,99.90
2018-11-11T00:41:02.829Z,99.90
2018-11-11T00:43:06.648Z,99.90
2018-11-11T00:45:11.435Z,99.90
2018-11-11T00:47:15.319Z,99.90
2018-11-11T00:49:19.153Z,99.90
2018-11-11T00:51:22.936Z,99.90
2018-11-11T00:53:26.970Z,99.90
2018-11-11T00:55:35.818Z,99.90
2018-11-11T00:57:41.052Z,99.90
2018-11-11T00:59:44.904Z,99.90
2018-11-11T01:01:48.723Z,99.90
2018-11-11T01:03:53.133Z,99.90
2018-11-11T01:06:00.177Z,99.90
2018-11-11T01:08:05.740Z,99.90
2018-11-11T01:10:12.516Z,99.90
2018-11-11T01:12:17.484Z,99.90
2018-11-11T01:14:22.027Z,99.90
2018-11-11T01:16:26.203Z,99.90
2018-11-11T01:18:30.046Z,99.90
2018-11-11T01:20:34.541Z,99.90
2018-11-11T01:22:38.492Z,99.90
2018-11-11T01:24:42.675Z,99.90
2018-11-11T01:26:47.156Z,99.90
2018-11-11T01:28:51.856Z,99.90
2018-11-11T01:30:55.927Z,99.90
2018-11-11T01:33:00.614Z,99.90
2018-11-11T01:35:05.202Z,99.90
2018-11-11T01:37:09.209Z,99.90
2018-11-11T01:39:13.076Z,99.90
2018-11-11T01:41:17.097Z,99.90
2018-11-11T01:43:21.278Z,99.90
2018-11-11T01:45:25.392Z,99.90
2018-11-11T01:47:29.959Z,99.90
2018-11-11T01:49:33.749Z,99.90
2018-11-11T01:51:37.956Z,99.90
2018-11-11T01:53:42.307Z,99.90
2018-11-11T01:55:46.331Z,99.90
2018-11-11T01:57:50.227Z,99.90
2018-11-11T01:59:54.537Z,99.90
2018-11-11T02:01:58.664Z,99.90
2018-11-11T02:04:02.530Z,99.90
2018-11-11T02:06:06.916Z,99.90
2018-11-11T02:08:11.415Z,99.90
2018-11-11T02:10:15.490Z,99.90
2018-11-11T02:12:19.972Z,99.90
2018-11-11T02:14:24.113Z,99.90
2018-11-11T02:16:28.089Z,99.90
2018-11-11T02:18:33.644Z,99.90
2018-11-11T02:20:38.230Z,99.90
2018-11-11T02:22:42.963Z,99.90
2018-11-11T02:24:46.915Z,99.90
2018-11-11T02:26:50.974Z,99.90
2018-11-11T02:28:54.900Z,99.90
2018-11-11T02:31:00.022Z,99.90
2018-11-11T02:33:03.970Z,99.90
2018-11-11T02:35:07.895Z,99.90
2018-11-11T02:37:11.882Z,99.90
2018-11-11T02:39:16.399Z,99.90
2018-11-11T02:41:20.297Z,99.90
2018-11-11T02:43:24.269Z,99.90
2018-11-11T02:45:28.399Z,99.90
2018-11-11T02:47:32.480Z,99.90
2018-11-11T02:49:36.364Z,99.90
2018-11-11T02:51:41.328Z,99.90
2018-11-11T02:53:45.740Z,99.90
2018-11-11T02:55:49.700Z,99.90
2018-11-11T02:57:53.986Z,99.90
2018-11-11T02:59:58.009Z,99.90
2018-11-11T03:02:02.000Z,99.90
2018-11-11T03:04:05.908Z,99.90
2018-11-11T03:06:09.635Z,99.90
2018-11-11T03:08:13.429Z,99.90
2018-11-11T03:10:17.696Z,99.90
2018-11-11T03:12:21.532Z,99.90
2018-11-11T03:14:25.299Z,99.90
2018-11-11T03:16:29.044Z,99.90
2018-11-11T03:18:32.863Z,99.90
2018-11-11T03:20:36.653Z,99.90
2018-11-11T03:22:40.451Z,99.90
2018-11-11T03:24:44.215Z,99.90
2018-11-11T03:26:48.008Z,99.90
2018-11-11T03:28:51.754Z,99.90
2018-11-11T03:30:55.564Z,99.90
2018-11-11T03:32:59.401Z,99.90
2018-11-11T03:35:03.152Z,99.90
2018-11-11T03:37:07.224Z,99.90
2018-11-11T03:39:11.227Z,99.90
2018-11-11T03:41:15.062Z,99.90
2018-11-11T03:43:18.876Z,99.90
2018-11-11T03:45:22.693Z,99.90
2018-11-11T03:47:26.470Z,99.90
2018-11-11T03:49:30.279Z,99.90
2018-11-11T03:51:34.062Z,99.90
2018-11-11T03:53:38.198Z,99.90
2018-11-11T03:55:42.000Z,99.90
2018-11-11T03:57:45.778Z,99.90
2018-11-11T03:59:49.686Z,99.90
2018-11-11T04:01:53.485Z,99.90
2018-11-11T04:03:57.252Z,99.90
2018-11-11T04:06:01.064Z,99.90
2018-11-11T04:08:05.292Z,99.90
2018-11-11T04:10:11.532Z,99.90
2018-11-11T04:12:15.311Z,99.90
2018-11-11T04:14:19.133Z,99.90
2018-11-11T04:16:22.869Z,99.90
2018-11-11T04:18:26.616Z,99.90
2018-11-11T04:20:30.439Z,99.90
2018-11-11T04:22:34.258Z,99.90
2018-11-11T04:24:38.067Z,99.90
2018-11-11T04:26:41.841Z,99.90
2018-11-11T04:28:45.639Z,99.90
2018-11-11T04:30:49.471Z,99.90
2018-11-11T04:32:53.284Z,99.90
2018-11-11T04:34:57.052Z,99.90
2018-11-11T04:37:00.901Z,99.90
2018-11-11T04:39:06.364Z,99.90
2018-11-11T04:41:10.078Z,99.90
2018-11-11T04:43:13.876Z,99.90
2018-11-11T04:45:17.671Z,99.90
2018-11-11T04:47:21.511Z,99.90
2018-11-11T04:49:25.393Z,99.90
2018-11-11T04:51:29.276Z,99.90
2018-11-11T04:53:33.067Z,99.90
2018-11-11T04:55:36.885Z,99.90
2018-11-11T04:57:41.290Z,99.90
2018-11-11T04:59:45.173Z,99.90
2018-11-11T05:01:48.986Z,99.90
2018-11-11T05:03:52.772Z,99.90
2018-11-11T05:05:56.604Z,99.90
2018-11-11T05:08:00.361Z,99.90
2018-11-11T05:10:04.545Z,99.90
2018-11-11T05:12:08.604Z,99.90
2018-11-11T05:14:12.587Z,99.90
2018-11-11T05:16:16.410Z,99.90
2018-11-11T05:18:20.173Z,99.90
2018-11-11T05:20:23.946Z,99.90
2018-11-11T05:22:27.721Z,99.90
2018-11-11T05:24:31.480Z,99.90
2018-11-11T05:26:35.401Z,99.90
2018-11-11T05:28:39.205Z,99.90
2018-11-11T05:30:43.000Z,99.90
2018-11-11T05:32:46.738Z,99.90
2018-11-11T05:34:50.517Z,99.90
2018-11-11T05:36:54.317Z,99.90
2018-11-11T05:38:58.225Z,99.90
2018-11-11T05:41:02.017Z,99.90
2018-11-11T05:43:05.796Z,99.90
2018-11-11T05:45:10.850Z,99.90
2018-11-11T05:47:15.499Z,99.90
2018-11-11T05:49:22.048Z,99.90
2018-11-11T05:51:26.958Z,99.90
2018-11-11T05:53:30.808Z,99.90
2018-11-11T05:55:34.556Z,99.90
2018-11-11T05:57:38.440Z,99.90
2018-11-11T05:59:42.335Z,99.90
2018-11-11T06:01:46.203Z,99.90
2018-11-11T06:03:49.981Z,99.90
2018-11-11T06:05:54.601Z,99.90
2018-11-11T06:07:58.361Z,99.90
2018-11-11T06:10:02.151Z,99.90
2018-11-11T06:12:06.057Z,99.90
2018-11-11T06:14:09.940Z,99.90
2018-11-11T06:16:13.739Z,99.90
2018-11-11T06:18:17.511Z,99.90
2018-11-11T06:20:21.335Z,99.90
2018-11-11T06:22:25.501Z,99.90
2018-11-11T06:24:29.288Z,99.90
2018-11-11T06:26:33.022Z,99.90
2018-11-11T06:28:37.140Z,99.90
2018-11-11T06:30:41.068Z,99.90
2018-11-11T06:32:44.846Z,99.90
2018-11-11T06:34:48.672Z,99.90
2018-11-11T06:36:52.381Z,99.90
2018-11-11T06:38:56.178Z,99.90
2018-11-11T06:40:59.999Z,99.90
2018-11-11T06:43:03.784Z,99.90
2018-11-11T06:45:08.777Z,99.90
2018-11-11T06:47:12.525Z,99.90
2018-11-11T06:49:16.653Z,99.90
2018-11-11T06:51:20.558Z,99.90
2018-11-11T06:53:24.396Z,99.90
2018-11-11T06:55:28.251Z,99.90
2018-11-11T06:57:32.554Z,99.90
2018-11-11T06:59:36.754Z,99.90
2018-11-11T07:01:40.537Z,99.90
2018-11-11T07:03:57.387Z,99.90
2018-11-11T07:06:01.184Z,99.90
2018-11-11T07:08:05.033Z,99.90
2018-11-11T07:10:08.961Z,99.90
2018-11-11T07:12:13.639Z,99.90
2018-11-11T07:14:17.683Z,99.90
2018-11-11T07:16:21.453Z,99.90
2018-11-11T07:18:25.206Z,99.90
2018-11-11T07:20:28.936Z,99.90
2018-11-11T07:22:32.797Z,99.90
2018-11-11T07:24:36.542Z,99.90
2018-11-11T07:26:40.369Z,99.90
2018-11-11T07:28:44.097Z,99.90
2018-11-11T07:30:47.927Z,99.90
2018-11-11T07:32:51.673Z,99.90
2018-11-11T07:34:55.480Z,99.90
2018-11-11T07:37:00.104Z,99.90
2018-11-11T07:39:04.771Z,99.90
2018-11-11T07:41:09.116Z,99.90
2018-11-11T07:43:12.920Z,99.90
2018-11-11T07:45:16.683Z,99.90
2018-11-11T07:47:20.485Z,99.80
2018-11-11T07:49:24.209Z,99.70
2018-11-11T07:51:29.048Z,98.00
2018-11-11T07:53:33.243Z,96.30
2018-11-11T07:55:37.047Z,96.50
2018-11-11T07:57:41.269Z,95.60
2018-11-11T07:59:45.109Z,95.50
2018-11-11T08:01:48.966Z,93.40
2018-11-11T08:03:52.724Z,92.50
2018-11-11T08:05:56.439Z,87.20
2018-11-11T08:08:00.240Z,81.30
2018-11-11T08:10:04.196Z,73.20
2018-11-11T08:12:08.031Z,66.80
2018-11-11T08:14:12.017Z,62.80
2018-11-11T08:16:15.862Z,60.00
2018-11-11T08:18:20.618Z,59.90
2018-11-11T08:20:24.395Z,60.60
2018-11-11T08:22:28.287Z,59.40
2018-11-11T08:24:32.546Z,55.90
2018-11-11T08:26:37.028Z,55.10
2018-11-11T08:28:40.836Z,53.10
2018-11-11T08:30:46.063Z,48.60
2018-11-11T08:32:50.161Z,46.70
2018-11-11T08:34:53.911Z,48.50
2018-11-11T08:36:57.901Z,49.70
2018-11-11T08:39:02.354Z,53.30
2018-11-11T08:41:06.440Z,52.60
2018-11-11T08:43:10.251Z,49.60
2018-11-11T08:45:14.668Z,52.60
2018-11-11T08:47:18.492Z,49.90
2018-11-11T08:49:22.265Z,50.60
2018-11-11T08:51:26.118Z,45.60
2018-11-11T08:53:30.014Z,45.30
2018-11-11T08:55:33.965Z,43.70
2018-11-11T08:57:37.863Z,43.30
2018-11-11T08:59:41.662Z,40.20
2018-11-11T09:01:45.448Z,41.20
2018-11-11T09:03:49.273Z,38.80
2018-11-11T09:05:53.097Z,37.10
2018-11-11T09:07:56.899Z,33.20
2018-11-11T09:10:00.764Z,30.10
2018-11-11T09:12:04.521Z,29.20
2018-11-11T09:14:08.439Z,30.50
2018-11-11T09:16:12.603Z,28.20
2018-11-11T09:18:16.508Z,31.00
2018-11-11T09:20:20.454Z,32.40
2018-11-11T09:22:24.298Z,34.40
2018-11-11T09:24:28.247Z,30.10
2018-11-11T09:26:32.157Z,30.00
2018-11-11T09:28:36.032Z,28.40
2018-11-11T09:30:39.960Z,29.10
2018-11-11T09:32:45.629Z,31.30
2018-11-11T09:34:50.140Z,29.00
2018-11-11T09:36:54.121Z,28.80
2018-11-11T09:38:58.064Z,30.00
2018-11-11T09:41:02.239Z,31.20
2018-11-11T09:43:06.965Z,29.80
2018-11-11T09:45:12.853Z,30.00
2018-11-11T09:47:16.903Z,29.20
2018-11-11T09:49:20.965Z,28.60
2018-11-11T09:51:24.870Z,27.50
2018-11-11T09:53:29.081Z,24.10
2018-11-11T09:55:33.763Z,24.60
2018-11-11T09:57:38.413Z,27.00
2018-11-11T09:59:42.287Z,29.20
2018-11-11T10:01:46.255Z,27.30
2018-11-11T10:03:54.518Z,26.30
2018-11-11T10:06:17.681Z,24.90
2018-11-11T10:08:27.135Z,25.60
2018-11-11T10:10:40.373Z,27.00
2018-11-11T10:12:54.047Z,26.50
2018-11-11T10:15:08.546Z,25.80
2018-11-11T10:19:20.652Z,25.60
2018-11-11T10:21:29.715Z,25.70
2018-11-11T10:23:38.744Z,21.90
2018-11-11T10:26:06.401Z,24.60
2018-11-11T10:30:17.642Z,23.90
2018-11-11T10:32:40.033Z,24.50
2018-11-11T10:34:49.870Z,22.00
2018-11-11T10:37:03.465Z,21.10
2018-11-11T10:39:14.338Z,18.50
2018-11-11T10:41:27.115Z,21.60
2018-11-11T10:43:36.348Z,20.10
2018-11-11T10:47:51.993Z,20.00
2018-11-11T10:49:58.426Z,21.10
2018-11-11T10:52:02.352Z,21.10
2018-11-11T10:54:06.983Z,20.30
2018-11-11T10:56:10.891Z,21.00
2018-11-11T10:58:14.739Z,20.70
2018-11-11T11:00:23.815Z,21.70
2018-11-11T11:02:32.540Z,21.60
2018-11-11T11:04:40.488Z,22.50
2018-11-11T11:06:49.514Z,23.50
2018-11-11T11:08:58.570Z,23.20
2018-11-11T11:11:02.499Z,21.50
2018-11-11T11:13:06.455Z,21.70
2018-11-11T11:15:10.860Z,20.90
2018-11-11T11:17:14.729Z,22.20
2018-11-11T11:19:18.572Z,22.40
2018-11-11T11:21:22.504Z,20.60
2018-11-11T11:23:26.348Z,20.00
2018-11-11T11:25:30.337Z,20.00
2018-11-11T11:27:34.237Z,18.20
2018-11-11T11:29:38.023Z,18.80
2018-11-11T11:31:41.974Z,19.50
2018-11-11T11:33:45.760Z,20.30
2018-11-11T11:35:49.720Z,17.60
2018-11-11T11:37:53.524Z,18.60
2018-11-11T11:39:57.405Z,19.30
2018-11-11T11:42:01.318Z,19.00
2018-11-11T11:44:05.816Z,18.00
2018-11-11T11:46:09.771Z,17.90
2018-11-11T11:48:13.620Z,18.00
2018-11-11T11:50:17.485Z,18.00
2018-11-11T11:52:21.415Z,18.20
2018-11-11T11:54:25.197Z,17.80
2018-11-11T11:56:29.316Z,16.50
2018-11-11T11:58:34.358Z,17.60
2018-11-11T12:00:38.202Z,18.80
2018-11-11T12:02:42.052Z,18.30
2018-11-11T12:04:45.883Z,20.00
2018-11-11T12:06:49.753Z,20.50
2018-11-11T12:08:53.760Z,22.60
2018-11-11T12:10:57.564Z,24.10
2018-11-11T12:13:01.666Z,25.40
2018-11-11T12:15:06.128Z,26.10
2018-11-11T12:17:10.154Z,28.40
2018-11-11T12:19:14.641Z,27.90
2018-11-11T12:21:18.786Z,26.00
2018-11-11T12:23:22.878Z,27.00
2018-11-11T12:25:27.348Z,26.20
2018-11-11T12:27:33.445Z,26.60
2018-11-11T12:29:37.515Z,22.50
2018-11-11T12:31:41.500Z,22.40
2018-11-11T12:33:49.337Z,22.90
2018-11-11T12:35:53.340Z,24.10
2018-11-11T12:37:57.855Z,24.10
2018-11-11T12:40:02.086Z,23.00
2018-11-11T12:42:06.654Z,24.70
2018-11-11T12:44:11.370Z,24.60
2018-11-11T12:46:15.597Z,22.70
2018-11-11T12:48:19.623Z,22.90
2018-11-11T12:50:24.219Z,21.70
2018-11-11T12:52:29.176Z,20.60
2018-11-11T12:54:33.555Z,19.80
2018-11-11T12:56:37.455Z,19.50
2018-11-11T12:58:41.653Z,20.60
2018-11-11T13:00:45.617Z,20.70
2018-11-11T13:02:49.530Z,20.50
2018-11-11T13:04:54.601Z,19.50
2018-11-11T13:06:58.404Z,19.10
2018-11-11T13:09:02.381Z,19.40
2018-11-11T13:11:07.250Z,19.10
2018-11-11T13:13:11.376Z,19.00
2018-11-11T13:15:15.358Z,17.50
2018-11-11T13:17:19.149Z,17.30
2018-11-11T13:19:22.966Z,16.90
2018-11-11T13:21:26.910Z,17.30
2018-11-11T13:23:30.810Z,16.20
2018-11-11T13:25:34.708Z,17.20
2018-11-11T13:27:39.136Z,16.90
2018-11-11T13:29:43.287Z,17.00
2018-11-11T13:31:47.266Z,16.70
2018-11-11T13:33:51.272Z,15.80
2018-11-11T13:35:55.521Z,16.00
2018-11-11T13:37:59.518Z,15.90
2018-11-11T13:40:03.583Z,15.00
2018-11-11T13:42:07.545Z,16.00
2018-11-11T13:44:11.437Z,16.10
2018-11-11T13:46:15.982Z,16.10
2018-11-11T13:48:19.893Z,16.20
2018-11-11T13:50:25.256Z,15.70
2018-11-11T13:52:29.248Z,17.00
2018-11-11T13:54:33.115Z,18.00
2018-11-11T13:56:37.069Z,17.50
2018-11-11T13:58:40.851Z,17.30
2018-11-11T14:00:44.795Z,17.50
2018-11-11T14:02:48.664Z,17.50
2018-11-11T14:04:52.879Z,17.50
2018-11-11T14:06:56.747Z,18.20
2018-11-11T14:09:00.559Z,19.10
2018-11-11T14:11:04.557Z,18.70
2018-11-11T14:13:08.469Z,18.40
2018-11-11T14:15:14.541Z,18.90
2018-11-11T14:17:18.407Z,19.40
2018-11-11T14:19:22.401Z,18.60
2018-11-11T14:21:26.212Z,18.40
2018-11-11T14:23:30.147Z,17.80
2018-11-11T14:25:34.090Z,18.40
2018-11-11T14:27:38.051Z,18.40
2018-11-11T14:29:41.946Z,19.20
2018-11-11T14:31:45.786Z,17.80
2018-11-11T14:33:49.654Z,17.50
2018-11-11T14:35:53.531Z,17.80
2018-11-11T14:37:57.576Z,17.80
2018-11-11T14:40:01.595Z,18.00
2018-11-11T14:42:05.813Z,18.60
2018-11-11T14:44:10.145Z,19.40
2018-11-11T14:46:14.142Z,19.60
2018-11-11T14:48:17.893Z,19.60
2018-11-11T14:50:22.432Z,19.40
2018-11-11T14:52:26.670Z,19.60
2018-11-11T14:54:30.419Z,19.80
2018-11-11T14:56:34.343Z,20.70
2018-11-11T14:58:38.549Z,21.80
2018-11-11T15:00:42.364Z,23.40
2018-11-11T15:03:07.612Z,22.70
2018-11-11T15:05:13.651Z,23.90
2018-11-11T15:07:17.687Z,24.00
2018-11-11T15:09:21.734Z,24.80
2018-11-11T15:11:25.627Z,24.70
2018-11-11T15:13:29.491Z,25.20
2018-11-11T15:15:33.468Z,25.50
2018-11-11T15:17:37.584Z,26.20
2018-11-11T15:19:41.519Z,26.20
2018-11-11T15:21:45.578Z,26.70
2018-11-11T15:23:49.455Z,26.80
2018-11-11T15:25:53.386Z,27.30
2018-11-11T15:27:57.327Z,27.80
2018-11-11T15:30:01.206Z,28.00
2018-11-11T15:32:05.280Z,28.10
2018-11-11T15:34:09.172Z,28.00
2018-11-11T15:36:13.524Z,28.00
2018-11-11T15:38:17.470Z,28.80
2018-11-11T15:40:23.709Z,28.90
2018-11-11T15:42:27.644Z,29.00
2018-11-11T15:44:31.532Z,29.80
2018-11-11T15:46:35.413Z,31.00
2018-11-11T15:48:39.307Z,31.00
2018-11-11T15:50:43.289Z,30.80
2018-11-11T15:52:49.409Z,31.00
2018-11-11T15:54:53.322Z,31.80
2018-11-11T15:56:57.223Z,31.10
2018-11-11T15:59:01.223Z,31.70
2018-11-11T16:01:05.553Z,32.50
2018-11-11T16:03:09.533Z,33.00
2018-11-11T16:05:14.097Z,33.40
2018-11-11T16:07:18.079Z,33.80
2018-11-11T16:09:22.745Z,33.40
2018-11-11T16:11:26.638Z,35.60
2018-11-11T16:13:30.590Z,35.50
2018-11-11T16:15:36.269Z,36.60
2018-11-11T16:17:40.351Z,36.70
2018-11-11T16:19:44.316Z,37.40
2018-11-11T16:21:48.381Z,37.60
2018-11-11T16:23:52.283Z,38.50
2018-11-11T16:25:56.158Z,38.80
2018-11-11T16:28:00.779Z,40.70
2018-11-11T16:30:05.548Z,41.10
2018-11-11T16:32:09.661Z,41.00
2018-11-11T16:34:14.409Z,41.60
2018-11-11T16:36:19.218Z,41.70
2018-11-11T16:38:23.196Z,42.50
2018-11-11T16:40:29.446Z,43.20
2018-11-11T16:42:33.413Z,44.40
2018-11-11T16:44:37.296Z,44.30
2018-11-11T16:46:41.204Z,45.80
2018-11-11T16:48:45.103Z,45.90
2018-11-11T16:50:49.226Z,46.00
2018-11-11T16:52:54.058Z,46.60
2018-11-11T16:54:57.860Z,47.90
2018-11-11T16:57:01.714Z,48.80
2018-11-11T16:59:06.196Z,49.30
2018-11-11T17:01:10.089Z,49.70
2018-11-11T17:03:13.908Z,51.10
2018-11-11T17:05:19.076Z,53.00
2018-11-11T17:07:22.840Z,53.30
2018-11-11T17:09:26.594Z,54.20
2018-11-11T17:11:30.354Z,56.40
2018-11-11T17:13:37.040Z,56.30
2018-11-11T17:15:40.838Z,57.20
2018-11-11T17:17:44.601Z,59.40
2018-11-11T17:19:48.398Z,59.40
2018-11-11T17:21:52.320Z,59.70
2018-11-11T17:23:56.031Z,60.10
2018-11-11T17:25:59.781Z,61.70
2018-11-11T17:28:03.652Z,63.00
2018-11-11T17:30:16.060Z,63.30
2018-11-11T17:32:19.795Z,63.70
2018-11-11T17:34:23.576Z,64.80
2018-11-11T17:36:27.371Z,66.60
2018-11-11T17:38:31.209Z,66.90
2018-11-11T17:40:34.956Z,67.50
2018-11-11T17:42:39.636Z,68.30
2018-11-11T17:44:43.403Z,68.30
2018-11-11T17:46:47.180Z,70.00
2018-11-11T17:48:51.231Z,70.50
2018-11-11T17:50:54.742Z,72.20
2018-11-11T17:52:59.376Z,73.60
2018-11-11T17:55:03.120Z,74.60
2018-11-11T17:57:06.973Z,76.10
2018-11-11T17:59:10.795Z,77.00
2018-11-11T18:01:14.791Z,77.50
2018-11-11T18:03:18.608Z,77.70
2018-11-11T18:05:23.586Z,78.00
2018-11-11T18:07:27.359Z,78.10
2018-11-11T18:09:31.260Z,78.80
2018-11-11T18:11:34.988Z,79.70
2018-11-11T18:13:38.728Z,80.40
2018-11-11T18:15:42.583Z,79.80
2018-11-11T18:17:46.325Z,81.30
2018-11-11T18:19:50.077Z,82.10
2018-11-11T18:21:53.914Z,81.90
2018-11-11T18:23:57.739Z,82.10
2018-11-11T18:26:01.528Z,82.00
2018-11-11T18:28:05.483Z,82.70
2018-11-11T18:30:12.162Z,83.20
2018-11-11T18:32:15.958Z,83.10
2018-11-11T18:34:19.824Z,82.30
2018-11-11T18:36:23.579Z,83.70
2018-11-11T18:38:27.397Z,83.50
2018-11-11T18:40:31.259Z,84.00
2018-11-11T18:42:35.474Z,84.40
2018-11-11T18:44:39.260Z,85.10
2018-11-11T18:46:43.262Z,85.00
2018-11-11T18:48:47.169Z,85.90
2018-11-11T18:50:50.967Z,85.50
2018-11-11T18:52:54.885Z,85.10
2018-11-11T18:54:59.308Z,84.70
2018-11-11T18:57:03.271Z,85.20
2018-11-11T18:59:07.568Z,86.10
2018-11-11T19:01:11.923Z,86.50
2018-11-11T19:03:19.257Z,86.30
2018-11-11T19:05:24.291Z,87.10
2018-11-11T19:07:28.206Z,87.50
2018-11-11T19:09:32.208Z,88.00
2018-11-11T19:11:36.098Z,88.60
2018-11-11T19:13:40.118Z,88.50
2018-11-11T19:15:44.119Z,88.00
2018-11-11T19:17:48.837Z,88.50
2018-11-11T19:19:53.829Z,88.30
2018-11-11T19:21:58.272Z,87.70
2018-11-11T19:24:02.664Z,88.50
2018-11-11T19:26:07.234Z,88.40
2018-11-11T19:28:11.380Z,88.50
2018-11-11T19:30:16.401Z,87.70
2018-11-11T19:32:27.078Z,87.70
2018-11-11T19:34:31.247Z,87.30
2018-11-11T19:36:35.020Z,87.50
2018-11-11T19:38:38.789Z,87.20
2018-11-11T19:40:43.613Z,87.40
2018-11-11T19:42:48.906Z,87.10
2018-11-11T19:44:53.716Z,87.30
2018-11-11T19:46:57.788Z,87.40
2018-11-11T19:49:01.690Z,88.70
2018-11-11T19:51:05.771Z,88.90
2018-11-11T19:53:09.856Z,89.90
2018-11-11T19:55:14.337Z,89.00
2018-11-11T19:57:18.261Z,90.00
2018-11-11T19:59:23.447Z,91.40
2018-11-11T20:01:27.236Z,91.50
2018-11-11T20:03:31.431Z,92.00
2018-11-11T20:05:35.455Z,92.20
2018-11-11T20:07:40.208Z,92.50
2018-11-11T20:09:44.604Z,93.10
2018-11-11T20:11:48.579Z,93.00
2018-11-11T20:13:52.807Z,93.60
2018-11-11T20:15:57.147Z,93.60
2018-11-11T20:18:02.079Z,93.70
2018-11-11T20:20:08.198Z,93.20
2018-11-11T20:22:12.964Z,93.10
2018-11-11T20:24:17.671Z,93.20
2018-11-11T20:26:22.207Z,93.20
2018-11-11T20:28:25.904Z,93.70
2018-11-11T20:30:31.057Z,93.90
2018-11-11T20:32:34.828Z,94.00
2018-11-11T20:34:38.633Z,93.90
2018-11-11T20:36:42.408Z,94.10
2018-11-11T20:38:46.144Z,94.00
2018-11-11T20:40:49.947Z,94.20
2018-11-11T20:42:54.274Z,95.10
2018-11-11T20:44:57.998Z,94.70
2018-11-11T20:47:01.838Z,94.80
2018-11-11T20:49:05.680Z,95.10
2018-11-11T20:51:09.625Z,95.10
2018-11-11T20:53:13.358Z,95.00
2018-11-11T20:55:17.970Z,95.10
2018-11-11T20:57:21.820Z,95.60
2018-11-11T20:59:25.642Z,95.60
2018-11-11T21:01:29.486Z,95.50
2018-11-11T21:03:33.333Z,95.50
2018-11-11T21:05:37.135Z,95.60
2018-11-11T21:07:41.125Z,95.40
2018-11-11T21:09:45.041Z,95.40
2018-11-11T21:11:48.934Z,95.50
2018-11-11T21:13:52.694Z,95.50
2018-11-11T21:15:56.528Z,95.80
2018-11-11T21:18:00.316Z,95.90
2018-11-11T21:20:04.468Z,95.80
2018-11-11T21:22:13.185Z,96.00
2018-11-11T21:24:17.106Z,96.00
2018-11-11T21:26:20.930Z,96.00
2018-11-11T21:28:24.747Z,96.10
2018-11-11T21:30:29.781Z,95.70
2018-11-11T21:32:33.671Z,95.70
2018-11-11T21:34:37.756Z,95.50
2018-11-11T21:36:41.589Z,96.00
2018-11-11T21:38:45.395Z,95.70
2018-11-11T21:40:49.211Z,95.60
2018-11-11T21:42:53.748Z,95.30
2018-11-11T21:44:57.553Z,95.20
2018-11-11T21:47:01.367Z,95.30
2018-11-11T21:49:05.367Z,94.80
2018-11-11T21:51:09.189Z,94.80
2018-11-11T21:53:29.720Z,94.60
2018-11-11T21:55:33.552Z,94.20
2018-11-11T21:57:43.939Z,94.20
2018-11-11T21:59:47.678Z,94.30
2018-11-11T22:01:51.441Z,94.90
2018-11-11T22:03:55.228Z,95.00
2018-11-11T22:05:59.019Z,95.10
2018-11-11T22:08:02.800Z,95.00
2018-11-11T22:10:08.921Z,95.00
2018-11-11T22:12:12.758Z,94.90
2018-11-11T22:14:16.544Z,95.00
2018-11-11T22:16:20.341Z,95.00
2018-11-11T22:18:24.122Z,94.90
2018-11-11T22:20:27.905Z,94.60
2018-11-11T22:22:31.763Z,94.40
2018-11-11T22:24:35.520Z,94.80
2018-11-11T22:26:39.278Z,94.40
2018-11-11T22:28:43.039Z,94.60
2018-11-11T22:30:46.809Z,94.60
2018-11-11T22:32:50.743Z,95.50
2018-11-11T22:34:54.564Z,95.70
2018-11-11T22:36:58.342Z,97.20
2018-11-11T22:39:02.137Z,96.80
2018-11-11T22:41:05.971Z,96.70
2018-11-11T22:43:09.754Z,96.90
2018-11-11T22:45:14.670Z,96.60
2018-11-11T22:47:19.493Z,97.20
2018-11-11T22:49:23.316Z,97.60
2018-11-11T22:51:27.041Z,97.70
2018-11-11T22:53:30.842Z,97.40
2018-11-11T22:55:41.263Z,96.70
2018-11-11T22:57:45.089Z,96.20
2018-11-11T22:59:48.900Z,95.90
2018-11-11T23:01:52.679Z,95.70
2018-11-11T23:03:56.518Z,95.60
2018-11-11T23:06:00.240Z,96.00
2018-11-11T23:08:04.097Z,95.90
2018-11-11T23:10:08.768Z,95.60
2018-11-11T23:12:12.499Z,95.50
2018-11-11T23:14:16.356Z,95.40
2018-11-11T23:16:20.176Z,95.20
2018-11-11T23:18:24.137Z,94.70
2018-11-11T23:20:27.916Z,94.60
2018-11-11T23:22:31.713Z,95.30
2018-11-11T23:24:35.494Z,95.10
2018-11-11T23:26:39.262Z,94.90
2018-11-11T23:28:43.068Z,95.10
2018-11-11T23:30:46.860Z,95.10
2018-11-11T23:32:51.080Z,95.30
2018-11-11T23:34:54.876Z,95.30
2018-11-11T23:36:58.648Z,95.30
2018-11-11T23:39:02.491Z,96.10
2018-11-11T23:41:06.437Z,96.30
2018-11-11T23:43:10.233Z,96.80
2018-11-11T23:45:14.059Z,96.80
2018-11-11T23:47:17.867Z,97.00
2018-11-11T23:49:21.661Z,97.00
2018-11-11T23:51:25.445Z,97.00
2018-11-11T23:53:29.259Z,97.30
2018-11-11T23:55:33.079Z,97.20
2018-11-11T23:57:36.870Z,96.90
2018-11-11T23:59:40.698Z,96.70
